sensor_id;sensor_type;location;lat;lon;timestamp;pressure;altitude;pressure_sealevel;temperature;humidity
41250;BME280;26984;59.928;30.306;2022-07-06T00:02:25;101213.88;;;17.76;100.00
41250;BME280;26984;59.928;30.306;2022-07-06T00:04:52;101212.59;;;17.66;100.00
41250;BME280;26984;59.928;30.306;2022-07-06T00:07:21;101209.47;;;17.58;100.00
41250;BME280;26984;59.928;30.306;2022-07-06T00:09:48;101212.38;;;17.51;100.00
41250;BME280;26984;59.928;30.306;2022-07-06T00:12:16;101210.69;;;17.50;100.00
41250;BME280;26984;59.928;30.306;2022-07-06T00:14:43;101212.25;;;17.46;100.00
41250;BME280;26984;59.928;30.306;2022-07-06T00:17:10;101217.16;;;17.44;100.00
41250;BME280;26984;59.928;30.306;2022-07-06T00:19:38;101217.97;;;17.44;100.00
41250;BME280;26984;59.928;30.306;2022-07-06T00:22:05;101216.06;;;17.45;100.00
41250;BME280;26984;59.928;30.306;2022-07-06T00:24:34;101212.09;;;17.36;100.00
41250;BME280;26984;59.928;30.306;2022-07-06T00:27:01;101208.31;;;17.37;100.00
41250;BME280;26984;59.928;30.306;2022-07-06T00:29:29;101212.69;;;17.38;100.00
41250;BME280;26984;59.928;30.306;2022-07-06T00:31:56;101216.06;;;17.45;100.00
41250;BME280;26984;59.928;30.306;2022-07-06T00:34:23;101206.97;;;17.39;100.00
41250;BME280;26984;59.928;30.306;2022-07-06T00:36:51;101206.81;;;17.46;100.00
41250;BME280;26984;59.928;30.306;2022-07-06T00:39:18;101211.28;;;17.52;100.00
41250;BME280;26984;59.928;30.306;2022-07-06T00:41:50;101213.56;;;17.60;100.00
41250;BME280;26984;59.928;30.306;2022-07-06T00:44:17;101203.34;;;17.67;100.00
41250;BME280;26984;59.928;30.306;2022-07-06T00:46:45;101198.69;;;17.68;100.00
41250;BME280;26984;59.928;30.306;2022-07-06T00:49:12;101203.91;;;17.69;100.00
41250;BME280;26984;59.928;30.306;2022-07-06T00:51:53;101200.88;;;17.66;100.00
41250;BME280;26984;59.928;30.306;2022-07-06T00:54:21;101210.25;;;17.75;100.00
41250;BME280;26984;59.928;30.306;2022-07-06T00:56:48;101210.06;;;17.77;100.00
41250;BME280;26984;59.928;30.306;2022-07-06T00:59:17;101203.78;;;17.76;100.00
41250;BME280;26984;59.928;30.306;2022-07-06T01:01:45;101199.88;;;17.72;100.00
41250;BME280;26984;59.928;30.306;2022-07-06T01:04:13;101201.25;;;17.75;100.00
41250;BME280;26984;59.928;30.306;2022-07-06T01:06:43;101200.94;;;17.71;100.00
41250;BME280;26984;59.928;30.306;2022-07-06T01:09:12;101201.75;;;17.71;100.00
41250;BME280;26984;59.928;30.306;2022-07-06T01:11:40;101205.22;;;17.67;100.00
41250;BME280;26984;59.928;30.306;2022-07-06T01:14:07;101210.63;;;17.62;100.00
41250;BME280;26984;59.928;30.306;2022-07-06T01:16:36;101208.63;;;17.57;100.00
41250;BME280;26984;59.928;30.306;2022-07-06T01:19:04;101213.84;;;17.59;100.00
41250;BME280;26984;59.928;30.306;2022-07-06T01:21:33;101218.03;;;17.66;100.00
41250;BME280;26984;59.928;30.306;2022-07-06T01:24:00;101215.31;;;17.66;100.00
41250;BME280;26984;59.928;30.306;2022-07-06T01:26:27;101211.00;;;17.70;100.00
41250;BME280;26984;59.928;30.306;2022-07-06T01:28:55;101217.78;;;17.68;100.00
41250;BME280;26984;59.928;30.306;2022-07-06T01:31:23;101211.84;;;17.71;100.00
41250;BME280;26984;59.928;30.306;2022-07-06T01:33:51;101214.06;;;17.74;100.00
41250;BME280;26984;59.928;30.306;2022-07-06T01:36:19;101210.06;;;17.77;100.00
41250;BME280;26984;59.928;30.306;2022-07-06T01:38:49;101211.03;;;17.87;100.00
41250;BME280;26984;59.928;30.306;2022-07-06T01:41:17;101216.31;;;17.94;100.00
41250;BME280;26984;59.928;30.306;2022-07-06T01:43:44;101211.53;;;18.06;100.00
41250;BME280;26984;59.928;30.306;2022-07-06T01:46:11;101209.53;;;18.18;100.00
41250;BME280;26984;59.928;30.306;2022-07-06T01:48:39;101213.88;;;18.36;100.00
41250;BME280;26984;59.928;30.306;2022-07-06T01:51:07;101224.13;;;18.51;100.00
41250;BME280;26984;59.928;30.306;2022-07-06T01:53:35;101224.50;;;18.60;100.00
41250;BME280;26984;59.928;30.306;2022-07-06T01:56:06;101224.75;;;18.58;100.00
41250;BME280;26984;59.928;30.306;2022-07-06T01:58:34;101220.06;;;18.54;100.00
41250;BME280;26984;59.928;30.306;2022-07-06T02:01:06;101224.31;;;18.45;100.00
41250;BME280;26984;59.928;30.306;2022-07-06T02:03:33;101230.91;;;18.27;100.00
41250;BME280;26984;59.928;30.306;2022-07-06T02:06:01;101230.31;;;18.03;100.00
41250;BME280;26984;59.928;30.306;2022-07-06T02:08:28;101227.00;;;17.79;100.00
41250;BME280;26984;59.928;30.306;2022-07-06T02:10:55;101222.50;;;17.56;100.00
41250;BME280;26984;59.928;30.306;2022-07-06T02:13:24;101217.06;;;17.39;100.00
41250;BME280;26984;59.928;30.306;2022-07-06T02:15:52;101219.69;;;17.34;100.00
41250;BME280;26984;59.928;30.306;2022-07-06T02:18:19;101224.16;;;17.23;100.00
41250;BME280;26984;59.928;30.306;2022-07-06T02:20:46;101228.50;;;17.24;100.00
41250;BME280;26984;59.928;30.306;2022-07-06T02:23:14;101221.28;;;17.30;100.00
41250;BME280;26984;59.928;30.306;2022-07-06T02:25:42;101215.91;;;17.35;100.00
41250;BME280;26984;59.928;30.306;2022-07-06T02:28:10;101217.72;;;17.46;100.00
41250;BME280;26984;59.928;30.306;2022-07-06T02:30:38;101215.97;;;17.57;100.00
41250;BME280;26984;59.928;30.306;2022-07-06T02:33:06;101220.59;;;17.73;100.00
41250;BME280;26984;59.928;30.306;2022-07-06T02:35:34;101233.81;;;17.81;100.00
41250;BME280;26984;59.928;30.306;2022-07-06T02:38:03;101230.25;;;17.98;100.00
41250;BME280;26984;59.928;30.306;2022-07-06T02:40:31;101232.09;;;18.14;100.00
41250;BME280;26984;59.928;30.306;2022-07-06T02:42:58;101223.41;;;18.17;100.00
41250;BME280;26984;59.928;30.306;2022-07-06T02:45:26;101228.00;;;18.11;100.00
41250;BME280;26984;59.928;30.306;2022-07-06T02:47:55;101227.03;;;18.01;100.00
41250;BME280;26984;59.928;30.306;2022-07-06T02:50:24;101222.91;;;17.98;100.00
41250;BME280;26984;59.928;30.306;2022-07-06T02:52:53;101230.41;;;18.08;100.00
41250;BME280;26984;59.928;30.306;2022-07-06T02:55:22;101232.53;;;18.06;100.00
41250;BME280;26984;59.928;30.306;2022-07-06T02:57:50;101234.59;;;18.15;100.00
41250;BME280;26984;59.928;30.306;2022-07-06T03:00:17;101236.09;;;18.06;100.00
41250;BME280;26984;59.928;30.306;2022-07-06T03:02:45;101236.19;;;18.11;100.00
41250;BME280;26984;59.928;30.306;2022-07-06T03:05:14;101240.34;;;17.97;100.00
41250;BME280;26984;59.928;30.306;2022-07-06T03:07:42;101239.91;;;17.88;100.00
41250;BME280;26984;59.928;30.306;2022-07-06T03:10:09;101239.59;;;17.85;100.00
41250;BME280;26984;59.928;30.306;2022-07-06T03:12:37;101242.25;;;17.97;100.00
41250;BME280;26984;59.928;30.306;2022-07-06T03:15:05;101230.97;;;18.10;100.00
41250;BME280;26984;59.928;30.306;2022-07-06T03:17:36;101243.66;;;18.21;100.00
41250;BME280;26984;59.928;30.306;2022-07-06T03:20:05;101246.19;;;18.28;100.00
41250;BME280;26984;59.928;30.306;2022-07-06T03:22:34;101237.47;;;18.26;100.00
41250;BME280;26984;59.928;30.306;2022-07-06T03:25:03;101238.31;;;18.31;100.00
41250;BME280;26984;59.928;30.306;2022-07-06T03:27:32;101236.19;;;18.33;100.00
41250;BME280;26984;59.928;30.306;2022-07-06T03:30:02;101241.38;;;18.35;100.00
41250;BME280;26984;59.928;30.306;2022-07-06T03:32:31;101240.59;;;18.17;100.00
41250;BME280;26984;59.928;30.306;2022-07-06T03:35:00;101241.16;;;17.98;100.00
41250;BME280;26984;59.928;30.306;2022-07-06T03:37:28;101236.38;;;17.88;100.00
41250;BME280;26984;59.928;30.306;2022-07-06T03:39:56;101234.25;;;17.90;100.00
41250;BME280;26984;59.928;30.306;2022-07-06T03:42:24;101239.19;;;17.93;100.00
41250;BME280;26984;59.928;30.306;2022-07-06T03:44:52;101244.72;;;17.98;100.00
41250;BME280;26984;59.928;30.306;2022-07-06T03:47:19;101237.47;;;17.87;100.00
41250;BME280;26984;59.928;30.306;2022-07-06T03:49:47;101242.97;;;17.92;100.00
41250;BME280;26984;59.928;30.306;2022-07-06T03:52:14;101235.06;;;17.90;100.00
41250;BME280;26984;59.928;30.306;2022-07-06T03:54:49;101239.53;;;17.97;100.00
41250;BME280;26984;59.928;30.306;2022-07-06T03:57:23;101243.22;;;18.07;100.00
41250;BME280;26984;59.928;30.306;2022-07-06T03:59:51;101245.34;;;18.05;100.00
41250;BME280;26984;59.928;30.306;2022-07-06T04:02:20;101241.31;;;18.08;100.00
41250;BME280;26984;59.928;30.306;2022-07-06T04:04:49;101238.13;;;18.16;100.00
41250;BME280;26984;59.928;30.306;2022-07-06T04:07:17;101242.66;;;18.27;100.00
41250;BME280;26984;59.928;30.306;2022-07-06T04:09:46;101252.75;;;18.49;100.00
41250;BME280;26984;59.928;30.306;2022-07-06T04:12:13;101243.09;;;18.63;100.00
41250;BME280;26984;59.928;30.306;2022-07-06T04:14:42;101255.78;;;18.74;100.00
41250;BME280;26984;59.928;30.306;2022-07-06T04:17:09;101244.19;;;18.84;100.00
41250;BME280;26984;59.928;30.306;2022-07-06T04:19:51;101255.09;;;18.84;100.00
41250;BME280;26984;59.928;30.306;2022-07-06T04:22:18;101248.50;;;18.80;100.00
41250;BME280;26984;59.928;30.306;2022-07-06T04:24:46;101252.25;;;18.74;100.00
41250;BME280;26984;59.928;30.306;2022-07-06T04:27:14;101257.78;;;18.79;100.00
41250;BME280;26984;59.928;30.306;2022-07-06T04:29:44;101254.38;;;18.94;100.00
41250;BME280;26984;59.928;30.306;2022-07-06T04:32:12;101257.75;;;19.01;100.00
41250;BME280;26984;59.928;30.306;2022-07-06T04:34:39;101252.69;;;19.14;100.00
41250;BME280;26984;59.928;30.306;2022-07-06T04:37:07;101255.94;;;19.11;100.00
41250;BME280;26984;59.928;30.306;2022-07-06T04:39:36;101268.19;;;19.09;100.00
41250;BME280;26984;59.928;30.306;2022-07-06T04:42:03;101264.88;;;18.80;100.00
41250;BME280;26984;59.928;30.306;2022-07-06T04:44:31;101268.47;;;18.63;100.00
41250;BME280;26984;59.928;30.306;2022-07-06T04:46:59;101274.38;;;18.55;100.00
41250;BME280;26984;59.928;30.306;2022-07-06T04:49:27;101275.69;;;18.53;100.00
41250;BME280;26984;59.928;30.306;2022-07-06T04:51:58;101265.25;;;18.45;100.00
41250;BME280;26984;59.928;30.306;2022-07-06T04:54:27;101263.97;;;18.52;100.00
41250;BME280;26984;59.928;30.306;2022-07-06T04:56:55;101268.97;;;18.60;100.00
41250;BME280;26984;59.928;30.306;2022-07-06T04:59:22;101267.97;;;18.66;100.00
41250;BME280;26984;59.928;30.306;2022-07-06T05:01:50;101263.47;;;18.55;100.00
41250;BME280;26984;59.928;30.306;2022-07-06T05:04:18;101265.25;;;18.45;100.00
41250;BME280;26984;59.928;30.306;2022-07-06T05:06:46;101264.91;;;18.41;100.00
41250;BME280;26984;59.928;30.306;2022-07-06T05:09:14;101267.78;;;18.51;100.00
41250;BME280;26984;59.928;30.306;2022-07-06T05:11:42;101270.84;;;18.55;100.00
41250;BME280;26984;59.928;30.306;2022-07-06T05:14:11;101270.50;;;18.51;100.00
41250;BME280;26984;59.928;30.306;2022-07-06T05:16:38;101273.06;;;18.58;100.00
41250;BME280;26984;59.928;30.306;2022-07-06T05:19:07;101273.75;;;18.48;100.00
41250;BME280;26984;59.928;30.306;2022-07-06T05:21:36;101279.88;;;18.38;100.00
41250;BME280;26984;59.928;30.306;2022-07-06T05:24:05;101272.19;;;18.35;100.00
41250;BME280;26984;59.928;30.306;2022-07-06T05:26:33;101270.75;;;18.50;100.00
41250;BME280;26984;59.928;30.306;2022-07-06T05:29:00;101270.25;;;18.53;100.00
41250;BME280;26984;59.928;30.306;2022-07-06T05:31:27;101263.09;;;18.47;100.00
41250;BME280;26984;59.928;30.306;2022-07-06T05:33:57;101264.28;;;18.56;100.00
41250;BME280;26984;59.928;30.306;2022-07-06T05:36:24;101259.97;;;18.60;100.00
41250;BME280;26984;59.928;30.306;2022-07-06T05:38:53;101265.34;;;18.72;100.00
41250;BME280;26984;59.928;30.306;2022-07-06T05:41:20;101268.50;;;18.85;100.00
41250;BME280;26984;59.928;30.306;2022-07-06T05:43:48;101262.50;;;18.88;100.00
41250;BME280;26984;59.928;30.306;2022-07-06T05:46:15;101266.00;;;18.84;100.00
41250;BME280;26984;59.928;30.306;2022-07-06T05:48:44;101266.53;;;18.81;100.00
41250;BME280;26984;59.928;30.306;2022-07-06T05:51:28;101273.44;;;18.88;100.00
41250;BME280;26984;59.928;30.306;2022-07-06T05:53:58;101281.88;;;18.87;100.00
41250;BME280;26984;59.928;30.306;2022-07-06T05:56:26;101279.81;;;18.72;100.00
41250;BME280;26984;59.928;30.306;2022-07-06T05:58:53;101273.53;;;18.72;100.00
41250;BME280;26984;59.928;30.306;2022-07-06T06:01:21;101279.84;;;18.77;100.00
41250;BME280;26984;59.928;30.306;2022-07-06T06:03:58;101283.41;;;18.78;100.00
41250;BME280;26984;59.928;30.306;2022-07-06T06:06:26;101289.44;;;18.80;100.00
41250;BME280;26984;59.928;30.306;2022-07-06T06:08:56;101282.00;;;18.97;100.00
41250;BME280;26984;59.928;30.306;2022-07-06T06:11:25;101283.03;;;18.91;100.00
41250;BME280;26984;59.928;30.306;2022-07-06T06:13:54;101281.81;;;18.82;100.00
41250;BME280;26984;59.928;30.306;2022-07-06T06:16:21;101273.50;;;18.94;100.00
41250;BME280;26984;59.928;30.306;2022-07-06T06:18:48;101267.03;;;19.00;100.00
41250;BME280;26984;59.928;30.306;2022-07-06T06:21:16;101256.66;;;19.02;100.00
41250;BME280;26984;59.928;30.306;2022-07-06T06:23:43;101254.50;;;19.04;100.00
41250;BME280;26984;59.928;30.306;2022-07-06T06:26:10;101247.59;;;18.96;100.00
41250;BME280;26984;59.928;30.306;2022-07-06T06:28:39;101258.13;;;18.87;100.00
41250;BME280;26984;59.928;30.306;2022-07-06T06:31:07;101255.63;;;19.08;100.00
41250;BME280;26984;59.928;30.306;2022-07-06T06:33:34;101253.41;;;19.32;100.00
41250;BME280;26984;59.928;30.306;2022-07-06T06:36:02;101250.41;;;19.33;100.00
41250;BME280;26984;59.928;30.306;2022-07-06T06:38:30;101251.00;;;19.41;100.00
41250;BME280;26984;59.928;30.306;2022-07-06T06:40:57;101251.00;;;19.41;100.00
41250;BME280;26984;59.928;30.306;2022-07-06T06:43:24;101254.88;;;19.45;100.00
41250;BME280;26984;59.928;30.306;2022-07-06T06:46:09;101246.41;;;19.46;100.00
41250;BME280;26984;59.928;30.306;2022-07-06T06:48:36;101238.97;;;19.69;100.00
41250;BME280;26984;59.928;30.306;2022-07-06T06:51:03;101243.31;;;19.65;100.00
41250;BME280;26984;59.928;30.306;2022-07-06T06:53:31;101251.09;;;19.51;100.00
41250;BME280;26984;59.928;30.306;2022-07-06T06:55:58;101250.88;;;19.57;99.33
41250;BME280;26984;59.928;30.306;2022-07-06T06:58:26;101242.16;;;19.60;100.00
41250;BME280;26984;59.928;30.306;2022-07-06T07:01:00;101245.41;;;19.90;96.54
41250;BME280;26984;59.928;30.306;2022-07-06T07:03:30;101247.41;;;20.04;94.72
41250;BME280;26984;59.928;30.306;2022-07-06T07:05:57;101247.34;;;19.94;92.04
41250;BME280;26984;59.928;30.306;2022-07-06T07:08:24;101246.22;;;19.90;93.02
41250;BME280;26984;59.928;30.306;2022-07-06T07:10:52;101252.81;;;19.94;90.77
41250;BME280;26984;59.928;30.306;2022-07-06T07:13:20;101251.50;;;19.65;92.84
41250;BME280;26984;59.928;30.306;2022-07-06T07:15:47;101258.66;;;19.71;92.34
41250;BME280;26984;59.928;30.306;2022-07-06T07:18:14;101252.66;;;19.74;90.64
41250;BME280;26984;59.928;30.306;2022-07-06T07:20:43;101253.53;;;19.79;88.85
41250;BME280;26984;59.928;30.306;2022-07-06T07:23:10;101248.66;;;19.87;88.25
41250;BME280;26984;59.928;30.306;2022-07-06T07:25:38;101239.63;;;19.86;89.56
41250;BME280;26984;59.928;30.306;2022-07-06T07:28:05;101249.09;;;20.11;88.54
41250;BME280;26984;59.928;30.306;2022-07-06T07:30:33;101252.47;;;20.28;86.83
41250;BME280;26984;59.928;30.306;2022-07-06T07:33:00;101245.38;;;20.37;85.75
41250;BME280;26984;59.928;30.306;2022-07-06T07:35:27;101245.13;;;20.39;86.02
41250;BME280;26984;59.928;30.306;2022-07-06T07:37:56;101239.91;;;20.32;86.53
41250;BME280;26984;59.928;30.306;2022-07-06T07:40:23;101242.19;;;20.50;81.53
41250;BME280;26984;59.928;30.306;2022-07-06T07:42:51;101256.94;;;20.49;80.62
41250;BME280;26984;59.928;30.306;2022-07-06T07:45:18;101247.06;;;20.48;81.24
41250;BME280;26984;59.928;30.306;2022-07-06T07:47:45;101251.78;;;20.53;82.05
41250;BME280;26984;59.928;30.306;2022-07-06T07:50:13;101247.88;;;20.44;82.67
41250;BME280;26984;59.928;30.306;2022-07-06T07:52:40;101262.88;;;20.36;82.34
41250;BME280;26984;59.928;30.306;2022-07-06T07:55:09;101255.44;;;20.26;83.20
41250;BME280;26984;59.928;30.306;2022-07-06T07:57:37;101265.56;;;20.21;84.37
41250;BME280;26984;59.928;30.306;2022-07-06T08:00:05;101263.44;;;20.38;84.17
41250;BME280;26984;59.928;30.306;2022-07-06T08:02:37;101260.53;;;20.55;83.86
41250;BME280;26984;59.928;30.306;2022-07-06T08:05:05;101258.09;;;20.59;83.14
41250;BME280;26984;59.928;30.306;2022-07-06T08:07:32;101264.00;;;20.40;83.07
41250;BME280;26984;59.928;30.306;2022-07-06T08:10:00;101260.69;;;20.38;81.86
41250;BME280;26984;59.928;30.306;2022-07-06T08:12:29;101265.00;;;20.24;81.67
41250;BME280;26984;59.928;30.306;2022-07-06T08:14:56;101261.13;;;20.15;82.38
41250;BME280;26984;59.928;30.306;2022-07-06T08:17:24;101251.38;;;20.29;82.39
41250;BME280;26984;59.928;30.306;2022-07-06T08:19:52;101247.88;;;20.49;81.89
41250;BME280;26984;59.928;30.306;2022-07-06T08:22:20;101247.84;;;20.39;82.72
41250;BME280;26984;59.928;30.306;2022-07-06T08:24:47;101257.66;;;20.34;83.15
41250;BME280;26984;59.928;30.306;2022-07-06T08:27:15;101252.66;;;20.16;84.46
41250;BME280;26984;59.928;30.306;2022-07-06T08:29:46;101245.81;;;20.14;79.90
41250;BME280;26984;59.928;30.306;2022-07-06T08:32:13;101240.94;;;20.21;80.62
41250;BME280;26984;59.928;30.306;2022-07-06T08:34:41;101244.56;;;20.42;77.42
41250;BME280;26984;59.928;30.306;2022-07-06T08:37:10;101242.97;;;20.46;76.53
41250;BME280;26984;59.928;30.306;2022-07-06T08:39:37;101245.13;;;20.49;77.40
41250;BME280;26984;59.928;30.306;2022-07-06T08:42:04;101250.16;;;20.57;76.92
41250;BME280;26984;59.928;30.306;2022-07-06T08:44:32;101245.75;;;20.56;77.17
41250;BME280;26984;59.928;30.306;2022-07-06T08:47:01;101241.56;;;20.43;77.49
41250;BME280;26984;59.928;30.306;2022-07-06T08:49:31;101237.53;;;20.51;77.28
41250;BME280;26984;59.928;30.306;2022-07-06T08:52:00;101239.53;;;20.71;77.02
41250;BME280;26984;59.928;30.306;2022-07-06T08:54:27;101239.88;;;21.00;74.21
41250;BME280;26984;59.928;30.306;2022-07-06T08:56:54;101225.66;;;21.13;73.88
41250;BME280;26984;59.928;30.306;2022-07-06T08:59:22;101231.66;;;21.25;72.56
41250;BME280;26984;59.928;30.306;2022-07-06T09:01:49;101214.69;;;21.34;72.08
41250;BME280;26984;59.928;30.306;2022-07-06T09:04:19;101205.63;;;21.59;68.25
41250;BME280;26984;59.928;30.306;2022-07-06T09:06:48;101203.72;;;21.54;67.92
41250;BME280;26984;59.928;30.306;2022-07-06T09:09:18;101198.28;;;21.39;68.64
41250;BME280;26984;59.928;30.306;2022-07-06T09:11:46;101193.63;;;21.39;69.25
41250;BME280;26984;59.928;30.306;2022-07-06T09:14:14;101198.81;;;21.20;69.53
41250;BME280;26984;59.928;30.306;2022-07-06T09:16:41;101201.50;;;21.00;70.05
41250;BME280;26984;59.928;30.306;2022-07-06T09:19:10;101199.88;;;21.04;70.87
41250;BME280;26984;59.928;30.306;2022-07-06T09:21:38;101191.09;;;21.12;71.47
41250;BME280;26984;59.928;30.306;2022-07-06T09:24:09;101186.19;;;21.14;70.17
41250;BME280;26984;59.928;30.306;2022-07-06T09:26:37;101185.09;;;21.20;70.52
41250;BME280;26984;59.928;30.306;2022-07-06T09:29:04;101175.50;;;21.28;69.45
41250;BME280;26984;59.928;30.306;2022-07-06T09:31:32;101164.56;;;21.38;68.86
41250;BME280;26984;59.928;30.306;2022-07-06T09:34:00;101166.47;;;21.53;68.16
41250;BME280;26984;59.928;30.306;2022-07-06T09:36:42;101175.22;;;21.50;69.10
41250;BME280;26984;59.928;30.306;2022-07-06T09:39:16;101166.47;;;21.38;70.44
41250;BME280;26984;59.928;30.306;2022-07-06T09:41:44;101170.31;;;21.47;70.52
41250;BME280;26984;59.928;30.306;2022-07-06T09:44:11;101171.09;;;21.58;70.63
41250;BME280;26984;59.928;30.306;2022-07-06T09:46:39;101168.38;;;21.52;71.73
41250;BME280;26984;59.928;30.306;2022-07-06T09:49:07;101172.22;;;21.46;72.22
41250;BME280;26984;59.928;30.306;2022-07-06T09:51:35;101167.84;;;21.50;70.75
41250;BME280;26984;59.928;30.306;2022-07-06T09:54:05;101169.47;;;21.57;71.94
41250;BME280;26984;59.928;30.306;2022-07-06T09:56:37;101160.66;;;21.70;69.30
41250;BME280;26984;59.928;30.306;2022-07-06T09:59:05;101166.13;;;21.75;69.09
41250;BME280;26984;59.928;30.306;2022-07-06T10:01:32;101159.28;;;21.72;68.21
41250;BME280;26984;59.928;30.306;2022-07-06T10:04:00;101154.38;;;21.54;69.82
41250;BME280;26984;59.928;30.306;2022-07-06T10:06:29;101148.13;;;21.38;70.84
41250;BME280;26984;59.928;30.306;2022-07-06T10:08:57;101157.41;;;21.47;70.04
41250;BME280;26984;59.928;30.306;2022-07-06T10:11:27;101156.28;;;21.74;68.34
41250;BME280;26984;59.928;30.306;2022-07-06T10:13:57;101152.94;;;21.92;67.79
41250;BME280;26984;59.928;30.306;2022-07-06T10:16:25;101155.16;;;21.80;69.17
41250;BME280;26984;59.928;30.306;2022-07-06T10:18:53;101150.47;;;21.81;69.23
41250;BME280;26984;59.928;30.306;2022-07-06T10:21:21;101141.97;;;21.82;69.86
41250;BME280;26984;59.928;30.306;2022-07-06T10:23:49;101141.97;;;21.92;69.96
41250;BME280;26984;59.928;30.306;2022-07-06T10:26:17;101139.72;;;21.99;68.21
41250;BME280;26984;59.928;30.306;2022-07-06T10:28:46;101139.75;;;21.89;68.71
41250;BME280;26984;59.928;30.306;2022-07-06T10:31:14;101139.72;;;21.94;67.55
41250;BME280;26984;59.928;30.306;2022-07-06T10:33:42;101136.19;;;21.99;67.64
41250;BME280;26984;59.928;30.306;2022-07-06T10:36:10;101137.75;;;22.15;66.45
41250;BME280;26984;59.928;30.306;2022-07-06T10:38:38;101125.38;;;22.28;66.66
41250;BME280;26984;59.928;30.306;2022-07-06T10:41:06;101131.88;;;22.42;64.78
41250;BME280;26984;59.928;30.306;2022-07-06T10:43:33;101132.88;;;22.57;65.25
41250;BME280;26984;59.928;30.306;2022-07-06T10:46:08;101128.50;;;22.56;66.54
41250;BME280;26984;59.928;30.306;2022-07-06T10:48:37;101121.03;;;22.61;65.50
41250;BME280;26984;59.928;30.306;2022-07-06T10:51:05;101132.56;;;22.58;64.75
41250;BME280;26984;59.928;30.306;2022-07-06T10:53:34;101130.22;;;22.41;65.94
41250;BME280;26984;59.928;30.306;2022-07-06T10:56:04;101136.84;;;22.35;66.46
41250;BME280;26984;59.928;30.306;2022-07-06T10:58:39;101141.47;;;22.40;65.66
41250;BME280;26984;59.928;30.306;2022-07-06T11:01:09;101135.53;;;22.28;64.58
41250;BME280;26984;59.928;30.306;2022-07-06T11:03:37;101128.97;;;22.23;65.88
41250;BME280;26984;59.928;30.306;2022-07-06T11:06:06;101126.72;;;22.31;64.75
41250;BME280;26984;59.928;30.306;2022-07-06T11:08:53;101118.50;;;22.31;65.41
41250;BME280;26984;59.928;30.306;2022-07-06T11:11:21;101132.38;;;22.50;65.13
41250;BME280;26984;59.928;30.306;2022-07-06T11:13:53;101129.31;;;22.56;64.91
41250;BME280;26984;59.928;30.306;2022-07-06T11:16:22;101130.94;;;22.57;65.33
41250;BME280;26984;59.928;30.306;2022-07-06T11:19:05;101120.88;;;22.82;64.79
41250;BME280;26984;59.928;30.306;2022-07-06T11:21:37;101120.78;;;22.97;65.09
41250;BME280;26984;59.928;30.306;2022-07-06T11:24:06;101113.41;;;23.27;63.62
41250;BME280;26984;59.928;30.306;2022-07-06T11:26:34;101116.09;;;23.32;63.82
41250;BME280;26984;59.928;30.306;2022-07-06T11:29:02;101121.19;;;23.43;62.72
41250;BME280;26984;59.928;30.306;2022-07-06T11:31:31;101117.09;;;23.41;63.20
41250;BME280;26984;59.928;30.306;2022-07-06T11:33:59;101116.16;;;23.27;62.70
41250;BME280;26984;59.928;30.306;2022-07-06T11:36:27;101119.50;;;23.18;62.60
41250;BME280;26984;59.928;30.306;2022-07-06T11:38:54;101128.69;;;23.04;63.35
41250;BME280;26984;59.928;30.306;2022-07-06T11:41:21;101123.25;;;22.99;63.49
41250;BME280;26984;59.928;30.306;2022-07-06T11:43:49;101124.44;;;22.82;63.30
41250;BME280;26984;59.928;30.306;2022-07-06T11:46:18;101119.25;;;22.81;64.25
41250;BME280;26984;59.928;30.306;2022-07-06T11:48:47;101120.38;;;23.14;62.61
41250;BME280;26984;59.928;30.306;2022-07-06T11:51:15;101111.59;;;23.41;61.19
41250;BME280;26984;59.928;30.306;2022-07-06T11:53:43;101118.53;;;23.62;60.88
41250;BME280;26984;59.928;30.306;2022-07-06T11:56:11;101118.31;;;23.54;60.54
41250;BME280;26984;59.928;30.306;2022-07-06T11:58:42;101114.69;;;23.34;61.24
41250;BME280;26984;59.928;30.306;2022-07-06T12:01:14;101118.84;;;23.32;61.74
41250;BME280;26984;59.928;30.306;2022-07-06T12:03:41;101115.78;;;23.33;62.00
41250;BME280;26984;59.928;30.306;2022-07-06T12:06:17;101112.59;;;23.50;61.24
41250;BME280;26984;59.928;30.306;2022-07-06T12:08:45;101120.16;;;23.63;60.87
41250;BME280;26984;59.928;30.306;2022-07-06T12:11:16;101113.16;;;23.76;60.41
41250;BME280;26984;59.928;30.306;2022-07-06T12:13:44;101109.88;;;23.74;61.06
41250;BME280;26984;59.928;30.306;2022-07-06T12:16:11;101106.25;;;23.79;60.61
41250;BME280;26984;59.928;30.306;2022-07-06T12:18:39;101105.78;;;23.72;60.61
41250;BME280;26984;59.928;30.306;2022-07-06T12:21:07;101099.63;;;23.56;61.27
41250;BME280;26984;59.928;30.306;2022-07-06T12:23:40;101098.81;;;23.55;61.29
41250;BME280;26984;59.928;30.306;2022-07-06T12:26:08;101102.84;;;23.63;61.39
41250;BME280;26984;59.928;30.306;2022-07-06T12:28:36;101103.56;;;23.74;60.37
41250;BME280;26984;59.928;30.306;2022-07-06T12:31:04;101102.78;;;23.92;60.32
41250;BME280;26984;59.928;30.306;2022-07-06T12:33:31;101103.81;;;24.20;59.89
41250;BME280;26984;59.928;30.306;2022-07-06T12:36:09;101097.94;;;24.27;58.81
41250;BME280;26984;59.928;30.306;2022-07-06T12:38:40;101097.31;;;24.11;59.35
41250;BME280;26984;59.928;30.306;2022-07-06T12:41:12;101103.28;;;23.94;59.60
41250;BME280;26984;59.928;30.306;2022-07-06T12:43:49;101096.06;;;23.79;60.30